sensor_id;sensor_type;location;lat;lon;timestamp;pressure;altitude;pressure_sealevel;temperature;humidity
77118;BME280;66072;50.238;19.228;2023-01-23T00:01:27;99894.36;;;0.35;94.44
77118;BME280;66072;50.238;19.228;2023-01-23T00:03:55;99887.30;;;0.36;94.55
77118;BME280;66072;50.238;19.228;2023-01-23T00:06:24;99887.14;;;0.36;94.47
77118;BME280;66072;50.238;19.228;2023-01-23T00:08:51;99889.16;;;0.36;94.47
77118;BME280;66072;50.238;19.228;2023-01-23T00:11:22;99897.07;;;0.36;94.42
77118;BME280;66072;50.238;19.228;2023-01-23T00:13:51;99901.94;;;0.35;94.40
77118;BME280;66072;50.238;19.228;2023-01-23T00:16:20;99902.61;;;0.35;94.33
77118;BME280;66072;50.238;19.228;2023-01-23T00:18:49;99905.80;;;0.35;94.35
77118;BME280;66072;50.238;19.228;2023-01-23T00:21:19;99907.33;;;0.35;94.43
77118;BME280;66072;50.238;19.228;2023-01-23T00:23:51;99914.89;;;0.35;94.49
77118;BME280;66072;50.238;19.228;2023-01-23T00:26:21;99924.16;;;0.36;94.45
77118;BME280;66072;50.238;19.228;2023-01-23T00:28:50;99928.37;;;0.36;94.52
77118;BME280;66072;50.238;19.228;2023-01-23T00:31:33;99929.71;;;0.36;94.44
77118;BME280;66072;50.238;19.228;2023-01-23T00:34:04;99936.77;;;0.36;94.41
77118;BME280;66072;50.238;19.228;2023-01-23T00:36:36;99940.35;;;0.37;94.32
77118;BME280;66072;50.238;19.228;2023-01-23T00:39:07;99944.90;;;0.37;94.41
77118;BME280;66072;50.238;19.228;2023-01-23T00:41:35;99950.64;;;0.38;94.48
77118;BME280;66072;50.238;19.228;2023-01-23T00:44:03;99950.30;;;0.38;94.43
77118;BME280;66072;50.238;19.228;2023-01-23T00:46:30;99948.45;;;0.39;94.38
77118;BME280;66072;50.238;19.228;2023-01-23T00:48:58;99946.79;;;0.39;94.41
77118;BME280;66072;50.238;19.228;2023-01-23T00:51:26;99946.94;;;0.38;94.38
77118;BME280;66072;50.238;19.228;2023-01-23T00:53:54;99953.83;;;0.38;94.40
77118;BME280;66072;50.238;19.228;2023-01-23T00:56:22;99958.38;;;0.38;94.40
77118;BME280;66072;50.238;19.228;2023-01-23T00:58:50;99959.71;;;0.37;94.37
77118;BME280;66072;50.238;19.228;2023-01-23T01:01:17;99952.45;;;0.37;94.42
77118;BME280;66072;50.238;19.228;2023-01-23T01:03:45;99954.62;;;0.36;94.45
77118;BME280;66072;50.238;19.228;2023-01-23T01:06:13;99956.64;;;0.36;94.54
77118;BME280;66072;50.238;19.228;2023-01-23T01:08:41;99951.42;;;0.36;94.42
77118;BME280;66072;50.238;19.228;2023-01-23T01:11:09;99946.04;;;0.36;94.47
77118;BME280;66072;50.238;19.228;2023-01-23T01:13:37;99944.36;;;0.36;94.41
77118;BME280;66072;50.238;19.228;2023-01-23T01:16:06;99946.87;;;0.35;94.39
77118;BME280;66072;50.238;19.228;2023-01-23T01:18:35;99946.35;;;0.35;94.46
77118;BME280;66072;50.238;19.228;2023-01-23T01:21:11;99947.35;;;0.34;94.50
77118;BME280;66072;50.238;19.228;2023-01-23T01:23:40;99947.85;;;0.33;94.47
77118;BME280;66072;50.238;19.228;2023-01-23T01:26:08;99949.36;;;0.33;94.43
77118;BME280;66072;50.238;19.228;2023-01-23T01:28:38;99953.22;;;0.32;94.63
77118;BME280;66072;50.238;19.228;2023-01-23T01:31:09;99956.41;;;0.31;94.60
77118;BME280;66072;50.238;19.228;2023-01-23T01:33:38;99957.23;;;0.31;94.49
77118;BME280;66072;50.238;19.228;2023-01-23T01:36:11;99962.45;;;0.31;94.54
77118;BME280;66072;50.238;19.228;2023-01-23T01:38:39;99960.08;;;0.31;94.58
77118;BME280;66072;50.238;19.228;2023-01-23T01:41:07;99959.41;;;0.31;94.57
77118;BME280;66072;50.238;19.228;2023-01-23T01:43:35;99960.58;;;0.31;94.68
77118;BME280;66072;50.238;19.228;2023-01-23T01:46:22;99954.84;;;0.30;94.64
77118;BME280;66072;50.238;19.228;2023-01-23T01:49:10;99955.17;;;0.30;94.69
77118;BME280;66072;50.238;19.228;2023-01-23T01:51:43;99960.39;;;0.29;94.56
77118;BME280;66072;50.238;19.228;2023-01-23T01:57:14;99967.80;;;0.30;94.85
77118;BME280;66072;50.238;19.228;2023-01-23T01:59:50;99975.74;;;0.31;94.76
77118;BME280;66072;50.238;19.228;2023-01-23T02:02:32;99973.70;;;0.30;94.71
77118;BME280;66072;50.238;19.228;2023-01-23T02:05:05;99974.89;;;0.30;94.68
77118;BME280;66072;50.238;19.228;2023-01-23T02:10:32;99975.05;;;0.30;94.76
77118;BME280;66072;50.238;19.228;2023-01-23T02:13:21;99969.15;;;0.30;94.65
77118;BME280;66072;50.238;19.228;2023-01-23T02:15:50;99966.11;;;0.29;94.74
77118;BME280;66072;50.238;19.228;2023-01-23T02:18:20;99966.61;;;0.29;94.76
77118;BME280;66072;50.238;19.228;2023-01-23T02:20:50;99973.85;;;0.30;94.67
77118;BME280;66072;50.238;19.228;2023-01-23T02:26:15;99976.05;;;0.30;94.72
77118;BME280;66072;50.238;19.228;2023-01-23T02:28:49;99980.42;;;0.30;94.74
77118;BME280;66072;50.238;19.228;2023-01-23T02:31:17;99988.69;;;0.31;94.75
77118;BME280;66072;50.238;19.228;2023-01-23T02:33:49;99991.58;;;0.31;94.84
77118;BME280;66072;50.238;19.228;2023-01-23T02:36:20;99987.37;;;0.31;94.85
77118;BME280;66072;50.238;19.228;2023-01-23T02:41:38;99999.66;;;0.32;94.72
77118;BME280;66072;50.238;19.228;2023-01-23T02:44:20;99998.83;;;0.32;94.81
77118;BME280;66072;50.238;19.228;2023-01-23T02:46:48;99997.48;;;0.33;94.78
77118;BME280;66072;50.238;19.228;2023-01-23T02:49:16;99998.34;;;0.33;94.76
77118;BME280;66072;50.238;19.228;2023-01-23T02:51:44;99999.52;;;0.33;94.80
77118;BME280;66072;50.238;19.228;2023-01-23T02:54:12;99996.30;;;0.32;94.83
77118;BME280;66072;50.238;19.228;2023-01-23T02:56:40;99993.27;;;0.32;94.80
77118;BME280;66072;50.238;19.228;2023-01-23T02:59:08;99997.65;;;0.32;94.75
77118;BME280;66072;50.238;19.228;2023-01-23T03:01:36;100004.89;;;0.33;94.79
77118;BME280;66072;50.238;19.228;2023-01-23T03:04:04;100006.91;;;0.33;94.78
77118;BME280;66072;50.238;19.228;2023-01-23T03:06:34;100008.25;;;0.32;94.66
77118;BME280;66072;50.238;19.228;2023-01-23T03:09:05;100010.95;;;0.33;94.77
77118;BME280;66072;50.238;19.228;2023-01-23T03:11:34;100008.61;;;0.34;94.88
77118;BME280;66072;50.238;19.228;2023-01-23T03:14:02;100012.48;;;0.34;94.83
77118;BME280;66072;50.238;19.228;2023-01-23T03:16:31;100009.80;;;0.34;94.79
77118;BME280;66072;50.238;19.228;2023-01-23T03:19:03;100009.30;;;0.35;94.82
77118;BME280;66072;50.238;19.228;2023-01-23T03:21:32;100007.95;;;0.35;94.82
77118;BME280;66072;50.238;19.228;2023-01-23T03:23:59;100006.09;;;0.35;94.71
77118;BME280;66072;50.238;19.228;2023-01-23T03:26:27;100008.95;;;0.34;94.74
77118;BME280;66072;50.238;19.228;2023-01-23T03:28:55;100010.63;;;0.35;94.69
77118;BME280;66072;50.238;19.228;2023-01-23T03:31:22;100010.62;;;0.33;94.68
77118;BME280;66072;50.238;19.228;2023-01-23T03:33:50;100006.58;;;0.33;94.66
77118;BME280;66072;50.238;19.228;2023-01-23T03:36:19;100012.13;;;0.33;94.76
77118;BME280;66072;50.238;19.228;2023-01-23T03:38:47;100015.48;;;0.32;94.73
77118;BME280;66072;50.238;19.228;2023-01-23T03:41:14;100016.83;;;0.32;94.82
77118;BME280;66072;50.238;19.228;2023-01-23T03:43:42;100015.31;;;0.32;94.87
77118;BME280;66072;50.238;19.228;2023-01-23T03:46:10;100016.30;;;0.31;94.69
77118;BME280;66072;50.238;19.228;2023-01-23T03:48:38;100020.52;;;0.31;94.79
77118;BME280;66072;50.238;19.228;2023-01-23T03:51:05;100017.48;;;0.31;94.72
77118;BME280;66072;50.238;19.228;2023-01-23T03:53:33;100016.15;;;0.32;94.72
77118;BME280;66072;50.238;19.228;2023-01-23T03:56:01;100014.46;;;0.32;94.77
77118;BME280;66072;50.238;19.228;2023-01-23T03:58:29;100016.79;;;0.30;94.81
77118;BME280;66072;50.238;19.228;2023-01-23T04:00:57;100023.50;;;0.30;94.78
77118;BME280;66072;50.238;19.228;2023-01-23T04:03:25;100025.68;;;0.30;94.90
77118;BME280;66072;50.238;19.228;2023-01-23T04:05:57;100020.31;;;0.31;94.92
77118;BME280;66072;50.238;19.228;2023-01-23T04:08:25;100015.97;;;0.31;94.90
77118;BME280;66072;50.238;19.228;2023-01-23T04:11:01;100015.82;;;0.32;94.91
77118;BME280;66072;50.238;19.228;2023-01-23T04:13:29;100012.11;;;0.31;94.74
77118;BME280;66072;50.238;19.228;2023-01-23T04:15:58;100008.73;;;0.31;94.75
77118;BME280;66072;50.238;19.228;2023-01-23T04:18:26;100018.30;;;0.31;94.91
77118;BME280;66072;50.238;19.228;2023-01-23T04:20:54;100017.11;;;0.30;94.95
77118;BME280;66072;50.238;19.228;2023-01-23T04:23:22;100019.12;;;0.30;94.94
77118;BME280;66072;50.238;19.228;2023-01-23T04:25:51;100021.65;;;0.30;95.01
77118;BME280;66072;50.238;19.228;2023-01-23T04:28:19;100027.07;;;0.31;95.11
77118;BME280;66072;50.238;19.228;2023-01-23T04:30:48;100032.83;;;0.33;95.05
77118;BME280;66072;50.238;19.228;2023-01-23T04:33:17;100037.71;;;0.33;95.14
77118;BME280;66072;50.238;19.228;2023-01-23T04:35:51;100043.09;;;0.33;94.98
77118;BME280;66072;50.238;19.228;2023-01-23T04:38:21;100046.13;;;0.33;95.14
77118;BME280;66072;50.238;19.228;2023-01-23T04:40:49;100045.28;;;0.33;95.05
77118;BME280;66072;50.238;19.228;2023-01-23T04:43:18;100047.65;;;0.34;94.88
77118;BME280;66072;50.238;19.228;2023-01-23T04:45:49;100052.70;;;0.34;95.09
77118;BME280;66072;50.238;19.228;2023-01-23T04:48:17;100059.62;;;0.35;94.97
77118;BME280;66072;50.238;19.228;2023-01-23T04:50:45;100059.30;;;0.36;94.98
77118;BME280;66072;50.238;19.228;2023-01-23T04:53:12;100064.84;;;0.36;94.92
77118;BME280;66072;50.238;19.228;2023-01-23T04:55:40;100064.17;;;0.36;95.06
77118;BME280;66072;50.238;19.228;2023-01-23T04:58:08;100064.36;;;0.37;95.00
77118;BME280;66072;50.238;19.228;2023-01-23T05:00:37;100065.55;;;0.37;94.99
77118;BME280;66072;50.238;19.228;2023-01-23T05:03:04;100066.91;;;0.37;94.99
77118;BME280;66072;50.238;19.228;2023-01-23T05:05:33;100068.06;;;0.37;94.97
77118;BME280;66072;50.238;19.228;2023-01-23T05:08:01;100067.56;;;0.37;94.85
77118;BME280;66072;50.238;19.228;2023-01-23T05:10:29;100071.09;;;0.36;95.04
77118;BME280;66072;50.238;19.228;2023-01-23T05:12:57;100077.83;;;0.37;94.95
77118;BME280;66072;50.238;19.228;2023-01-23T05:15:24;100078.68;;;0.37;94.94
77118;BME280;66072;50.238;19.228;2023-01-23T05:17:52;100084.56;;;0.37;94.91
77118;BME280;66072;50.238;19.228;2023-01-23T05:20:20;100085.89;;;0.36;94.93
77118;BME280;66072;50.238;19.228;2023-01-23T05:22:49;100085.20;;;0.36;94.96
77118;BME280;66072;50.238;19.228;2023-01-23T05:25:26;100087.55;;;0.35;94.95
77118;BME280;66072;50.238;19.228;2023-01-23T05:27:53;100089.23;;;0.35;95.06
77118;BME280;66072;50.238;19.228;2023-01-23T05:30:38;100083.83;;;0.34;95.00
77118;BME280;66072;50.238;19.228;2023-01-23T05:36:22;100082.30;;;0.33;95.14
77118;BME280;66072;50.238;19.228;2023-01-23T05:39:10;100090.54;;;0.32;95.16
77118;BME280;66072;50.238;19.228;2023-01-23T05:41:40;100084.27;;;0.31;95.04
77118;BME280;66072;50.238;19.228;2023-01-23T05:44:14;100085.77;;;0.30;95.22
77118;BME280;66072;50.238;19.228;2023-01-23T05:47:02;100085.92;;;0.30;95.17
77118;BME280;66072;50.238;19.228;2023-01-23T05:49:30;100091.61;;;0.28;95.26
77118;BME280;66072;50.238;19.228;2023-01-23T05:52:18;100088.40;;;0.27;95.19
77118;BME280;66072;50.238;19.228;2023-01-23T05:54:46;100086.89;;;0.26;95.27
77118;BME280;66072;50.238;19.228;2023-01-23T05:57:14;100092.60;;;0.26;95.26
77118;BME280;66072;50.238;19.228;2023-01-23T05:59:42;100092.61;;;0.27;95.24
77118;BME280;66072;50.238;19.228;2023-01-23T06:02:30;100096.16;;;0.28;95.39
77118;BME280;66072;50.238;19.228;2023-01-23T06:04:58;100097.86;;;0.29;95.23
77118;BME280;66072;50.238;19.228;2023-01-23T06:07:26;100098.22;;;0.30;95.41
77118;BME280;66072;50.238;19.228;2023-01-23T06:09:54;100103.80;;;0.31;95.38
77118;BME280;66072;50.238;19.228;2023-01-23T06:12:34;100107.52;;;0.32;95.45
77118;BME280;66072;50.238;19.228;2023-01-23T06:15:05;100107.37;;;0.33;95.36
77118;BME280;66072;50.238;19.228;2023-01-23T06:18:15;100108.23;;;0.34;95.34
77118;BME280;66072;50.238;19.228;2023-01-23T06:20:41;100112.27;;;0.34;95.38
77118;BME280;66072;50.238;19.228;2023-01-23T06:23:32;100114.82;;;0.36;95.36
77118;BME280;66072;50.238;19.228;2023-01-23T06:26:01;100126.96;;;0.37;95.29
77118;BME280;66072;50.238;19.228;2023-01-23T06:28:29;100136.69;;;0.35;95.28
77118;BME280;66072;50.238;19.228;2023-01-23T06:31:11;100140.06;;;0.36;95.30
77118;BME280;66072;50.238;19.228;2023-01-23T06:33:59;100146.69;;;0.37;95.27
77118;BME280;66072;50.238;19.228;2023-01-23T06:36:27;100148.05;;;0.38;95.30
77118;BME280;66072;50.238;19.228;2023-01-23T06:38:55;100150.11;;;0.40;95.33
77118;BME280;66072;50.238;19.228;2023-01-23T06:41:28;100155.55;;;0.43;95.29
77118;BME280;66072;50.238;19.228;2023-01-23T06:44:04;100160.13;;;0.45;95.25
77118;BME280;66072;50.238;19.228;2023-01-23T06:46:33;100160.86;;;0.48;95.17
77118;BME280;66072;50.238;19.228;2023-01-23T06:49:08;100165.98;;;0.50;95.19
77118;BME280;66072;50.238;19.228;2023-01-23T06:51:57;100167.04;;;0.53;95.10
77118;BME280;66072;50.238;19.228;2023-01-23T06:54:24;100164.23;;;0.55;95.07
77118;BME280;66072;50.238;19.228;2023-01-23T06:56:52;100169.50;;;0.58;94.96
77118;BME280;66072;50.238;19.228;2023-01-23T06:59:20;100169.55;;;0.61;95.13
77118;BME280;66072;50.238;19.228;2023-01-23T07:02:02;100167.29;;;0.64;95.01
77118;BME280;66072;50.238;19.228;2023-01-23T07:04:33;100170.22;;;0.68;95.04
77118;BME280;66072;50.238;19.228;2023-01-23T07:07:10;100172.46;;;0.71;94.96
77118;BME280;66072;50.238;19.228;2023-01-23T07:09:38;100174.85;;;0.72;94.78
77118;BME280;66072;50.238;19.228;2023-01-23T07:12:05;100180.48;;;0.75;94.72
77118;BME280;66072;50.238;19.228;2023-01-23T07:17:34;100184.98;;;0.81;94.71
77118;BME280;66072;50.238;19.228;2023-01-23T07:20:05;100185.02;;;0.83;94.63
77118;BME280;66072;50.238;19.228;2023-01-23T07:22:54;100189.08;;;0.84;94.74
77118;BME280;66072;50.238;19.228;2023-01-23T07:25:23;100184.23;;;0.86;94.61
77118;BME280;66072;50.238;19.228;2023-01-23T07:28:33;100189.48;;;0.87;94.60
77118;BME280;66072;50.238;19.228;2023-01-23T07:31:00;100192.05;;;0.90;94.57
77118;BME280;66072;50.238;19.228;2023-01-23T07:33:28;100194.59;;;0.91;94.53
77118;BME280;66072;50.238;19.228;2023-01-23T07:36:06;100197.00;;;0.93;94.59
77118;BME280;66072;50.238;19.228;2023-01-23T07:38:35;100194.70;;;0.96;94.55
77118;BME280;66072;50.238;19.228;2023-01-23T07:44:00;100184.50;;;0.98;94.47
77118;BME280;66072;50.238;19.228;2023-01-23T07:46:28;100191.80;;;1.02;94.37
77118;BME280;66072;50.238;19.228;2023-01-23T07:48:56;100196.27;;;1.06;94.47
77118;BME280;66072;50.238;19.228;2023-01-23T07:51:23;100196.85;;;1.11;94.36
77118;BME280;66072;50.238;19.228;2023-01-23T07:53:51;100195.07;;;1.15;94.20
77118;BME280;66072;50.238;19.228;2023-01-23T07:56:19;100201.58;;;1.19;94.24
77118;BME280;66072;50.238;19.228;2023-01-23T07:58:50;100204.36;;;1.24;94.20
77118;BME280;66072;50.238;19.228;2023-01-23T08:01:17;100205.27;;;1.28;94.18
77118;BME280;66072;50.238;19.228;2023-01-23T08:03:46;100205.21;;;1.34;94.22
77118;BME280;66072;50.238;19.228;2023-01-23T08:06:14;100206.70;;;1.41;94.02
77118;BME280;66072;50.238;19.228;2023-01-23T08:08:41;100206.66;;;1.48;93.89
77118;BME280;66072;50.238;19.228;2023-01-23T08:11:11;100209.00;;;1.56;93.77
77118;BME280;66072;50.238;19.228;2023-01-23T08:13:39;100214.39;;;1.65;93.53
77118;BME280;66072;50.238;19.228;2023-01-23T08:16:07;100213.05;;;1.76;93.63
77118;BME280;66072;50.238;19.228;2023-01-23T08:18:35;100220.30;;;1.84;93.26
77118;BME280;66072;50.238;19.228;2023-01-23T08:21:02;100219.39;;;1.91;93.04
77118;BME280;66072;50.238;19.228;2023-01-23T08:23:32;100227.14;;;2.00;92.85
77118;BME280;66072;50.238;19.228;2023-01-23T08:26:03;100229.48;;;2.09;92.72
77118;BME280;66072;50.238;19.228;2023-01-23T08:28:31;100229.61;;;2.17;92.32
77118;BME280;66072;50.238;19.228;2023-01-23T08:31:04;100228.84;;;2.22;92.19
77118;BME280;66072;50.238;19.228;2023-01-23T08:33:34;100227.56;;;2.27;91.93
77118;BME280;66072;50.238;19.228;2023-01-23T08:36:03;100227.48;;;2.33;91.59
77118;BME280;66072;50.238;19.228;2023-01-23T08:38:31;100224.32;;;2.35;91.38
77118;BME280;66072;50.238;19.228;2023-01-23T08:41:00;100223.55;;;2.40;91.27
77118;BME280;66072;50.238;19.228;2023-01-23T08:43:29;100229.06;;;2.48;91.28
77118;BME280;66072;50.238;19.228;2023-01-23T08:45:58;100232.23;;;2.55;91.01
77118;BME280;66072;50.238;19.228;2023-01-23T08:48:26;100231.31;;;2.63;90.94
77118;BME280;66072;50.238;19.228;2023-01-23T08:50:59;100236.01;;;2.73;90.90
77118;BME280;66072;50.238;19.228;2023-01-23T08:53:28;100238.67;;;2.82;90.61
77118;BME280;66072;50.238;19.228;2023-01-23T08:56:00;100233.98;;;2.87;90.34
77118;BME280;66072;50.238;19.228;2023-01-23T08:58:28;100236.55;;;2.89;90.28
77118;BME280;66072;50.238;19.228;2023-01-23T09:00:56;100234.93;;;2.93;90.23
77118;BME280;66072;50.238;19.228;2023-01-23T09:03:25;100235.34;;;3.00;90.05
77118;BME280;66072;50.238;19.228;2023-01-23T09:05:53;100238.45;;;3.05;90.01
77118;BME280;66072;50.238;19.228;2023-01-23T09:08:20;100238.86;;;3.11;89.70
77118;BME280;66072;50.238;19.228;2023-01-23T09:10:48;100238.08;;;3.16;89.55
77118;BME280;66072;50.238;19.228;2023-01-23T09:13:16;100244.38;;;3.19;89.31
77118;BME280;66072;50.238;19.228;2023-01-23T09:15:44;100241.00;;;3.19;89.38
77118;BME280;66072;50.238;19.228;2023-01-23T09:18:12;100237.91;;;3.16;89.08
77118;BME280;66072;50.238;19.228;2023-01-23T09:20:40;100237.70;;;3.13;89.15
77118;BME280;66072;50.238;19.228;2023-01-23T09:23:07;100236.84;;;3.12;89.22
77118;BME280;66072;50.238;19.228;2023-01-23T09:25:36;100233.80;;;3.11;89.05
77118;BME280;66072;50.238;19.228;2023-01-23T09:28:05;100235.46;;;3.09;89.01
77118;BME280;66072;50.238;19.228;2023-01-23T09:30:32;100239.35;;;3.09;89.21
77118;BME280;66072;50.238;19.228;2023-01-23T09:33:00;100236.66;;;3.10;88.93
77118;BME280;66072;50.238;19.228;2023-01-23T09:35:28;100239.70;;;3.11;88.71
77118;BME280;66072;50.238;19.228;2023-01-23T09:37:56;100237.19;;;3.13;88.71
77118;BME280;66072;50.238;19.228;2023-01-23T09:40:29;100239.63;;;3.18;88.85
77118;BME280;66072;50.238;19.228;2023-01-23T09:43:03;100239.67;;;3.22;88.69
77118;BME280;66072;50.238;19.228;2023-01-23T09:45:32;100238.17;;;3.25;88.60
77118;BME280;66072;50.238;19.228;2023-01-23T09:48:23;100241.20;;;3.22;88.35
77118;BME280;66072;50.238;19.228;2023-01-23T09:50:59;100240.70;;;3.24;88.44
77118;BME280;66072;50.238;19.228;2023-01-23T09:53:35;100241.09;;;3.27;88.39
77118;BME280;66072;50.238;19.228;2023-01-23T09:56:12;100237.39;;;3.30;88.23
77118;BME280;66072;50.238;19.228;2023-01-23T09:58:59;100237.29;;;3.35;88.25
77118;BME280;66072;50.238;19.228;2023-01-23T10:01:30;100236.20;;;3.43;88.25
77118;BME280;66072;50.238;19.228;2023-01-23T10:03:58;100234.72;;;3.48;88.03
77118;BME280;66072;50.238;19.228;2023-01-23T10:06:29;100234.43;;;3.51;87.60
77118;BME280;66072;50.238;19.228;2023-01-23T10:09:10;100231.92;;;3.55;87.58
77118;BME280;66072;50.238;19.228;2023-01-23T10:20:09;100230.92;;;3.56;87.38
77118;BME280;66072;50.238;19.228;2023-01-23T10:25:21;100234.44;;;3.53;87.43
77118;BME280;66072;50.238;19.228;2023-01-23T10:27:55;100235.96;;;3.55;87.43
77118;BME280;66072;50.238;19.228;2023-01-23T10:30:31;100234.84;;;3.58;87.55
77118;BME280;66072;50.238;19.228;2023-01-23T10:33:09;100234.16;;;3.58;87.31
77118;BME280;66072;50.238;19.228;2023-01-23T10:35:54;100234.98;;;3.56;87.20
77118;BME280;66072;50.238;19.228;2023-01-23T10:38:38;100230.73;;;3.56;87.20
77118;BME280;66072;50.238;19.228;2023-01-23T10:41:10;100225.70;;;3.58;87.07
77118;BME280;66072;50.238;19.228;2023-01-23T10:43:45;100221.82;;;3.59;87.11
77118;BME280;66072;50.238;19.228;2023-01-23T10:46:16;100223.40;;;3.65;87.00
77118;BME280;66072;50.238;19.228;2023-01-23T10:48:49;100219.07;;;3.72;86.94
77118;BME280;66072;50.238;19.228;2023-01-23T10:54:14;100213.61;;;3.86;86.88
77118;BME280;66072;50.238;19.228;2023-01-23T11:02:29;100215.09;;;3.99;86.34
77118;BME280;66072;50.238;19.228;2023-01-23T11:04:59;100216.27;;;4.00;86.11
77118;BME280;66072;50.238;19.228;2023-01-23T11:07:30;100211.07;;;4.05;86.10
77118;BME280;66072;50.238;19.228;2023-01-23T11:10:01;100209.06;;;4.10;86.01
77118;BME280;66072;50.238;19.228;2023-01-23T11:12:51;100201.95;;;4.11;85.75
77118;BME280;66072;50.238;19.228;2023-01-23T11:15:28;100198.57;;;4.11;85.71
77118;BME280;66072;50.238;19.228;2023-01-23T11:17:59;100191.48;;;4.15;85.83
77118;BME280;66072;50.238;19.228;2023-01-23T11:20:35;100187.47;;;4.19;85.57
77118;BME280;66072;50.238;19.228;2023-01-23T11:23:12;100183.27;;;4.25;85.44
77118;BME280;66072;50.238;19.228;2023-01-23T11:28:33;100182.30;;;4.32;85.18
77118;BME280;66072;50.238;19.228;2023-01-23T11:31:18;100182.00;;;4.37;84.73
77118;BME280;66072;50.238;19.228;2023-01-23T11:33:56;100182.86;;;4.39;84.84
77118;BME280;66072;50.238;19.228;2023-01-23T11:39:47;100173.92;;;4.47;84.48
77118;BME280;66072;50.238;19.228;2023-01-23T11:42:16;100179.39;;;4.55;84.39
77118;BME280;66072;50.238;19.228;2023-01-23T11:44:45;100179.75;;;4.59;84.26
77118;BME280;66072;50.238;19.228;2023-01-23T11:50:20;100181.51;;;4.68;83.63
77118;BME280;66072;50.238;19.228;2023-01-23T11:52:54;100176.95;;;4.76;83.61
77118;BME280;66072;50.238;19.228;2023-01-23T11:55:37;100167.85;;;4.87;82.79
77118;BME280;66072;50.238;19.228;2023-01-23T12:01:33;100162.83;;;5.03;82.33
77118;BME280;66072;50.238;19.228;2023-01-23T12:04:20;100159.95;;;5.07;81.96
77118;BME280;66072;50.238;19.228;2023-01-23T12:07:16;100155.73;;;5.14;81.84
77118;BME280;66072;50.238;19.228;2023-01-23T12:12:25;100148.14;;;5.28;81.34
77118;BME280;66072;50.238;19.228;2023-01-23T12:20:43;100147.17;;;5.66;80.21
77118;BME280;66072;50.238;19.228;2023-01-23T12:23:29;100144.97;;;5.71;79.63
77118;BME280;66072;50.238;19.228;2023-01-23T12:26:11;100145.81;;;5.71;80.10
77118;BME280;66072;50.238;19.228;2023-01-23T12:31:25;100148.02;;;5.67;79.24
77118;BME280;66072;50.238;19.228;2023-01-23T12:42:20;100152.90;;;5.45;80.49
77118;BME280;66072;50.238;19.228;2023-01-23T12:45:14;100150.86;;;5.39;80.30
77118;BME280;66072;50.238;19.228;2023-01-23T12:50:43;100153.20;;;5.18;80.51
77118;BME280;66072;50.238;19.228;2023-01-23T12:53:14;100158.60;;;5.07;80.75
77118;BME280;66072;50.238;19.228;2023-01-23T12:55:56;100157.20;;;4.98;81.10
77118;BME280;66072;50.238;19.228;2023-01-23T12:58:28;100161.92;;;4.92;81.24
77118;BME280;66072;50.238;19.228;2023-01-23T13:01:22;100164.45;;;4.83;81.21
77118;BME280;66072;50.238;19.228;2023-01-23T13:12:21;100166.55;;;4.32;82.21
77118;BME280;66072;50.238;19.228;2023-01-23T13:15:19;100163.28;;;4.25;82.32
77118;BME280;66072;50.238;19.228;2023-01-23T13:18:00;100161.19;;;4.16;82.59
77118;BME280;66072;50.238;19.228;2023-01-23T13:20:32;100161.31;;;4.09;82.81
77118;BME280;66072;50.238;19.228;2023-01-23T13:23:26;100168.73;;;4.05;83.00
77118;BME280;66072;50.238;19.228;2023-01-23T13:31:25;100170.38;;;3.76;83.88
77118;BME280;66072;50.238;19.228;2023-01-23T13:33:54;100169.98;;;3.69;84.12
77118;BME280;66072;50.238;19.228;2023-01-23T13:36:36;100169.77;;;3.65;84.24
77118;BME280;66072;50.238;19.228;2023-01-23T13:41:42;100167.85;;;3.60;84.41
77118;BME280;66072;50.238;19.228;2023-01-23T13:44:23;100169.02;;;3.58;84.59
77118;BME280;66072;50.238;19.228;2023-01-23T13:47:08;100167.15;;;3.56;84.66
77118;BME280;66072;50.238;19.228;2023-01-23T13:50:07;100173.88;;;3.52;84.82
77118;BME280;66072;50.238;19.228;2023-01-23T13:52:55;100179.02;;;3.42;84.98
77118;BME280;66072;50.238;19.228;2023-01-23T13:55:42;100178.39;;;3.31;85.70
77118;BME280;66072;50.238;19.228;2023-01-23T13:58:26;100172.38;;;3.22;85.70
77118;BME280;66072;50.238;19.228;2023-01-23T14:01:17;100173.64;;;3.14;85.88
77118;BME280;66072;50.238;19.228;2023-01-23T14:04:23;100175.22;;;3.04;86.28
77118;BME280;66072;50.238;19.228;2023-01-23T14:07:24;100180.14;;;2.91;86.62
77118;BME280;66072;50.238;19.228;2023-01-23T14:10:21;100180.69;;;2.81;86.82
77118;BME280;66072;50.238;19.228;2023-01-23T14:13:06;100183.80;;;2.73;87.00
77118;BME280;66072;50.238;19.228;2023-01-23T14:15:33;100186.58;;;2.66;87.02
77118;BME280;66072;50.238;19.228;2023-01-23T14:18:00;100185.50;;;2.60;87.39
77118;BME280;66072;50.238;19.228;2023-01-23T14:20:40;100183.55;;;2.54;87.66
77118;BME280;66072;50.238;19.228;2023-01-23T14:23:36;100185.88;;;2.52;87.81
77118;BME280;66072;50.238;19.228;2023-01-23T14:26:08;100190.13;;;2.41;88.24
77118;BME280;66072;50.238;19.228;2023-01-23T14:28:37;100192.90;;;2.34;88.36
77118;BME280;66072;50.238;19.228;2023-01-23T14:31:13;100196.85;;;2.28;88.56
77118;BME280;66072;50.238;19.228;2023-01-23T14:33:47;100200.30;;;2.21;88.76
77118;BME280;66072;50.238;19.228;2023-01-23T14:36:17;100198.17;;;2.15;88.90
77118;BME280;66072;50.238;19.228;2023-01-23T14:38:47;100200.98;;;2.10;89.16
77118;BME280;66072;50.238;19.228;2023-01-23T14:41:17;100203.56;;;2.03;89.25
77118;BME280;66072;50.238;19.228;2023-01-23T14:43:47;100199.92;;;1.97;89.21
77118;BME280;66072;50.238;19.228;2023-01-23T14:46:19;100201.69;;;1.92;89.45
77118;BME280;66072;50.238;19.228;2023-01-23T14:48:50;100201.43;;;1.86;89.62
77118;BME280;66072;50.238;19.228;2023-01-23T14:54:16;100197.10;;;1.79;89.70
77118;BME280;66072;50.238;19.228;2023-01-23T14:56:49;100194.30;;;1.74;90.12